Terminal Aerodrome Forecast
Issued by NWS Cleveland, OH

Home | Current Version | Previous Version | Text Only | Print | Product List | Glossary Off
Versions: 1 2 3 4 5 6 7 8 9 10 11 12 13 14 15 16

047
FTUS41 KCLE 192334
TAFMFD
TAF
KMFD 192334Z 2000/2024 20018KT P6SM SCT250
     FM200800 21014KT P6SM BKN250
     FM201500 22012KT P6SM BKN015
     FM202300 20008KT P6SM OVC009=

USA.gov is the U.S. government's official web portal to all federal, state and local government web resources and services.